createdAt,value
2022-11-05T00:00:59.924Z,12.19
2022-11-05T00:01:59.997Z,12.02
2022-11-05T00:02:59.913Z,11.82
2022-11-05T00:03:59.956Z,11.80
2022-11-05T00:04:59.927Z,12.01
2022-11-05T00:05:59.891Z,11.82
2022-11-05T00:06:59.891Z,11.93
2022-11-05T00:07:59.914Z,11.93
2022-11-05T00:08:59.878Z,11.97
2022-11-05T00:09:59.866Z,11.87
2022-11-05T00:10:59.873Z,11.89
2022-11-05T00:11:59.854Z,11.83
2022-11-05T00:12:59.839Z,11.96
2022-11-05T00:13:59.851Z,11.97
2022-11-05T00:14:59.837Z,11.80
2022-11-05T00:15:59.818Z,11.82
2022-11-05T00:16:59.836Z,11.70
2022-11-05T00:17:59.822Z,11.65
2022-11-05T00:18:59.818Z,11.38
2022-11-05T00:19:59.829Z,11.56
2022-11-05T00:20:59.793Z,11.70
2022-11-05T00:21:59.789Z,11.70
2022-11-05T00:22:59.789Z,11.71
2022-11-05T00:23:59.778Z,11.83
2022-11-05T00:24:59.791Z,11.97
2022-11-05T00:25:59.773Z,11.90
2022-11-05T00:26:59.773Z,11.99
2022-11-05T00:27:59.750Z,11.97
2022-11-05T00:28:59.761Z,12.06
2022-11-05T00:29:59.749Z,12.13
2022-11-05T00:30:59.735Z,12.06
2022-11-05T00:31:59.740Z,11.87
2022-11-05T00:32:59.726Z,11.86
2022-11-05T00:33:59.717Z,11.94
2022-11-05T00:34:59.745Z,11.97
2022-11-05T00:35:59.689Z,12.13
2022-11-05T00:37:00.697Z,11.99
2022-11-05T00:37:59.701Z,11.82
2022-11-05T00:38:59.680Z,11.80
2022-11-05T00:39:59.681Z,11.82
2022-11-05T00:40:59.673Z,11.90
2022-11-05T00:41:59.653Z,11.89
2022-11-05T00:42:59.654Z,11.93
2022-11-05T00:43:59.673Z,11.89
2022-11-05T00:44:59.650Z,12.05
2022-11-05T00:45:59.633Z,12.08
2022-11-05T00:47:00.054Z,12.12
2022-11-05T00:48:00.608Z,12.12
2022-11-05T00:48:59.611Z,12.23
2022-11-05T00:49:59.639Z,12.19
2022-11-05T00:50:59.613Z,12.24
2022-11-05T00:51:59.582Z,12.06
2022-11-05T00:52:59.805Z,12.20
2022-11-05T00:53:59.636Z,12.16
2022-11-05T00:54:59.568Z,12.23
2022-11-05T00:55:59.585Z,12.16
2022-11-05T00:57:04.458Z,12.16
2022-11-05T00:58:01.581Z,12.20
2022-11-05T00:58:59.562Z,12.29
2022-11-05T00:59:59.541Z,12.31
2022-11-05T01:00:59.538Z,12.38
2022-11-05T01:01:59.658Z,12.46
2022-11-05T01:02:59.517Z,12.46
2022-11-05T01:03:59.514Z,12.45
2022-11-05T01:04:59.523Z,12.49
2022-11-05T01:05:59.526Z,12.45
2022-11-05T01:06:59.500Z,12.46
2022-11-05T01:07:59.530Z,12.60
2022-11-05T01:08:59.487Z,12.44
2022-11-05T01:09:59.498Z,12.46
2022-11-05T01:10:59.498Z,12.37
2022-11-05T01:11:59.479Z,12.41
2022-11-05T01:12:59.455Z,12.39
2022-11-05T01:13:59.510Z,12.38
2022-11-05T01:14:59.459Z,12.29
2022-11-05T01:15:59.448Z,12.12
2022-11-05T01:16:59.517Z,11.97
2022-11-05T01:17:59.421Z,11.87
2022-11-05T01:18:59.427Z,11.85
2022-11-05T01:19:59.437Z,11.85
2022-11-05T01:20:59.407Z,11.77
2022-11-05T01:21:59.417Z,11.62
2022-11-05T01:22:59.402Z,11.59
2022-11-05T01:23:59.390Z,11.64
2022-11-05T01:24:59.398Z,11.72
2022-11-05T01:25:59.378Z,11.70
2022-11-05T01:26:59.410Z,11.67
2022-11-05T01:27:59.378Z,11.62
2022-11-05T01:28:59.404Z,11.49
2022-11-05T01:29:59.422Z,11.47
2022-11-05T01:30:59.338Z,11.65
2022-11-05T01:31:59.353Z,11.70
2022-11-05T01:32:59.342Z,11.75
2022-11-05T01:33:59.317Z,11.82
2022-11-05T01:34:59.322Z,11.90
2022-11-05T01:35:59.318Z,11.97
2022-11-05T01:36:59.318Z,12.04
2022-11-05T01:37:59.307Z,11.97
2022-11-05T01:38:59.306Z,12.11
2022-11-05T01:39:59.314Z,12.15
2022-11-05T01:40:59.286Z,12.19
2022-11-05T01:41:59.305Z,12.20
2022-11-05T01:42:59.274Z,11.96
2022-11-05T01:43:59.281Z,11.80
2022-11-05T01:44:59.309Z,12.02
2022-11-05T01:46:00.263Z,12.11
2022-11-05T01:46:59.271Z,12.12
2022-11-05T01:47:59.257Z,12.11
2022-11-05T01:49:03.152Z,12.21
2022-11-05T01:50:00.230Z,12.11
2022-11-05T01:50:59.242Z,12.04
2022-11-05T01:51:59.254Z,12.02
2022-11-05T01:52:59.215Z,12.01
2022-11-05T01:53:59.220Z,12.13
2022-11-05T01:54:59.203Z,12.13
2022-11-05T01:55:59.208Z,12.12
2022-11-05T01:56:59.220Z,12.20
2022-11-05T01:57:59.203Z,12.19
2022-11-05T01:58:59.184Z,12.29
2022-11-05T01:59:59.192Z,12.30
2022-11-05T02:00:59.172Z,12.34
2022-11-05T02:01:59.314Z,12.46
2022-11-05T02:02:59.223Z,12.29
2022-11-05T02:03:59.139Z,12.06
2022-11-05T02:04:59.141Z,12.05
2022-11-05T02:05:59.165Z,12.04
2022-11-05T02:06:59.128Z,11.99
2022-11-05T02:07:59.139Z,12.06
2022-11-05T02:08:59.133Z,11.89
2022-11-05T02:09:59.111Z,12.02
2022-11-05T02:10:59.117Z,11.94
2022-11-05T02:11:59.109Z,11.90
2022-11-05T02:12:59.095Z,11.97
2022-11-05T02:13:59.103Z,11.90
2022-11-05T02:14:59.095Z,11.89
2022-11-05T02:15:59.079Z,11.67
2022-11-05T02:16:59.070Z,11.68
2022-11-05T02:17:59.087Z,11.77
2022-11-05T02:18:59.071Z,11.83
2022-11-05T02:19:59.043Z,11.87
2022-11-05T02:20:59.082Z,11.99
2022-11-05T02:21:59.035Z,12.09
2022-11-05T02:22:59.028Z,12.11
2022-11-05T02:23:59.043Z,12.08
2022-11-05T02:24:59.016Z,12.16
2022-11-05T02:26:00.008Z,11.93
2022-11-05T02:26:59.011Z,11.96
2022-11-05T02:27:58.992Z,11.87
2022-11-05T02:28:59.014Z,11.93
2022-11-05T02:29:59.000Z,11.99
2022-11-05T02:30:58.980Z,12.04
2022-11-05T02:31:58.959Z,12.21
2022-11-05T02:33:00.036Z,12.16
2022-11-05T02:33:58.992Z,12.08
2022-11-05T02:34:58.955Z,11.87
2022-11-05T02:35:58.951Z,12.16
2022-11-05T02:36:58.940Z,12.09
2022-11-05T02:37:58.936Z,11.83
2022-11-05T02:38:58.943Z,11.65
2022-11-05T02:39:58.943Z,11.89
2022-11-05T02:40:58.928Z,11.83
2022-11-05T02:42:03.627Z,11.68
2022-11-05T02:43:00.920Z,11.65
2022-11-05T02:43:58.899Z,11.50
2022-11-05T02:44:58.923Z,11.47
2022-11-05T02:45:58.890Z,11.62
2022-11-05T02:46:58.884Z,11.56
2022-11-05T02:47:58.886Z,11.74
2022-11-05T02:48:58.871Z,11.82
2022-11-05T02:49:58.887Z,11.85
2022-11-05T02:50:58.866Z,11.90
2022-11-05T02:51:58.851Z,12.06
2022-11-05T02:52:58.863Z,12.16
2022-11-05T02:53:58.843Z,12.16
2022-11-05T02:54:58.840Z,12.23
2022-11-05T02:55:58.852Z,12.24
2022-11-05T02:56:58.907Z,12.31
2022-11-05T02:57:58.811Z,12.41
2022-11-05T02:58:58.807Z,12.38
2022-11-05T02:59:58.825Z,12.45
2022-11-05T03:00:58.795Z,12.30
2022-11-05T03:01:58.901Z,12.26
2022-11-05T03:02:58.846Z,12.21
2022-11-05T03:03:58.827Z,12.27
2022-11-05T03:04:58.775Z,12.33
2022-11-05T03:05:58.807Z,12.37
2022-11-05T03:06:58.759Z,12.38
2022-11-05T03:07:58.749Z,12.34
2022-11-05T03:08:58.761Z,12.26
2022-11-05T03:09:58.742Z,12.37
2022-11-05T03:10:58.750Z,12.21
2022-11-05T03:11:58.773Z,12.24
2022-11-05T03:12:58.710Z,12.30
2022-11-05T03:13:58.699Z,12.33
2022-11-05T03:14:58.711Z,12.21
2022-11-05T03:15:58.698Z,12.34
2022-11-05T03:16:58.718Z,12.12
2022-11-05T03:17:58.840Z,12.26
2022-11-05T03:18:58.671Z,12.23
2022-11-05T03:19:58.667Z,12.09
2022-11-05T03:20:58.667Z,12.12
2022-11-05T03:21:58.658Z,12.09
2022-11-05T03:22:58.646Z,12.19
2022-11-05T03:23:58.652Z,12.06
2022-11-05T03:24:58.635Z,12.13
2022-11-05T03:25:58.629Z,12.12
2022-11-05T03:26:58.670Z,11.97
2022-11-05T03:27:58.624Z,11.85
2022-11-05T03:28:58.611Z,11.93
2022-11-05T03:29:58.614Z,11.71
2022-11-05T03:30:58.601Z,11.71
2022-11-05T03:31:58.596Z,11.57
2022-11-05T03:32:58.589Z,11.38
2022-11-05T03:33:58.576Z,11.35
2022-11-05T03:34:58.578Z,11.24
2022-11-05T03:35:58.586Z,11.20
2022-11-05T03:36:58.604Z,11.10
2022-11-05T03:37:58.573Z,11.02
2022-11-05T03:38:58.585Z,11.13
2022-11-05T03:39:58.541Z,10.99
2022-11-05T03:40:58.535Z,11.14
2022-11-05T03:41:58.551Z,11.29
2022-11-05T03:42:58.522Z,11.38
2022-11-05T03:43:58.527Z,11.54
2022-11-05T03:44:58.538Z,11.62
2022-11-05T03:45:58.514Z,11.71
2022-11-05T03:46:58.494Z,11.85
2022-11-05T03:47:58.518Z,11.89
2022-11-05T03:48:58.536Z,11.62
2022-11-05T03:49:58.500Z,11.52
2022-11-05T03:50:58.474Z,11.62
2022-11-05T03:51:58.483Z,11.68
2022-11-05T03:52:58.470Z,11.77
2022-11-05T03:53:58.487Z,11.87
2022-11-05T03:54:58.462Z,11.75
2022-11-05T03:55:59.289Z,11.68
2022-11-05T03:56:58.443Z,11.59
2022-11-05T03:57:58.456Z,11.57
2022-11-05T03:58:59.265Z,11.47
2022-11-05T03:59:59.471Z,11.61
2022-11-05T04:00:58.414Z,11.71
2022-11-05T04:01:58.542Z,11.77
2022-11-05T04:02:58.617Z,11.82
2022-11-05T04:03:58.395Z,11.78
2022-11-05T04:04:58.375Z,11.93
2022-11-05T04:05:58.463Z,12.09
2022-11-05T04:06:58.369Z,12.05
2022-11-05T04:07:58.391Z,11.80
2022-11-05T04:08:58.350Z,11.96
2022-11-05T04:09:58.371Z,12.01
2022-11-05T04:10:58.350Z,11.96
2022-11-05T04:11:58.338Z,11.96
2022-11-05T04:12:58.496Z,11.86
2022-11-05T04:13:58.335Z,11.99
2022-11-05T04:14:58.324Z,11.97
2022-11-05T04:15:58.310Z,11.97
2022-11-05T04:16:58.311Z,12.08
2022-11-05T04:17:58.323Z,12.02
2022-11-05T04:18:58.290Z,12.06
2022-11-05T04:19:58.290Z,12.15
2022-11-05T04:20:58.283Z,12.11
2022-11-05T04:21:58.286Z,12.19
2022-11-05T04:22:58.327Z,12.16
2022-11-05T04:23:58.270Z,12.12
2022-11-05T04:24:58.255Z,12.08
2022-11-05T04:25:58.268Z,12.11
2022-11-05T04:26:58.246Z,12.08
2022-11-05T04:27:58.267Z,12.02
2022-11-05T04:28:59.756Z,11.97
2022-11-05T04:29:58.222Z,11.80
2022-11-05T04:30:58.238Z,11.74
2022-11-05T04:31:58.243Z,11.82
2022-11-05T04:32:58.302Z,11.78
2022-11-05T04:33:58.230Z,11.86
2022-11-05T04:34:58.198Z,11.86
2022-11-05T04:35:58.191Z,11.72
2022-11-05T04:36:58.206Z,11.85
2022-11-05T04:37:58.182Z,11.75
2022-11-05T04:38:58.198Z,11.71
2022-11-05T04:39:58.182Z,11.65
2022-11-05T04:40:58.170Z,11.65
2022-11-05T04:41:58.162Z,11.57
2022-11-05T04:42:58.170Z,11.56
2022-11-05T04:43:58.152Z,11.50
2022-11-05T04:44:58.161Z,11.56
2022-11-05T04:45:58.153Z,11.59
2022-11-05T04:46:58.175Z,11.61
2022-11-05T04:47:58.134Z,11.65
2022-11-05T04:48:58.157Z,11.71
2022-11-05T04:49:58.122Z,11.65
2022-11-05T04:50:58.162Z,11.54
2022-11-05T04:51:58.103Z,11.65
2022-11-05T04:52:58.112Z,11.59
2022-11-05T04:53:58.091Z,11.53
2022-11-05T04:54:58.110Z,11.56
2022-11-05T04:55:58.091Z,11.46
2022-11-05T04:56:58.065Z,11.46
2022-11-05T04:57:58.070Z,11.53
2022-11-05T04:58:58.079Z,11.61
2022-11-05T04:59:58.065Z,11.61
2022-11-05T05:00:58.116Z,11.46
2022-11-05T05:01:58.090Z,11.44
2022-11-05T05:02:58.058Z,11.43
2022-11-05T05:03:58.075Z,11.31
2022-11-05T05:04:58.051Z,11.31
2022-11-05T05:06:03.385Z,11.20
2022-11-05T05:07:00.033Z,11.35
2022-11-05T05:07:58.006Z,11.41
2022-11-05T05:08:58.033Z,11.16
2022-11-05T05:09:58.017Z,11.19
2022-11-05T05:10:58.041Z,11.31
2022-11-05T05:11:58.014Z,11.14
2022-11-05T05:12:57.997Z,11.02
2022-11-05T05:13:57.973Z,10.95
2022-11-05T05:14:57.975Z,10.77
2022-11-05T05:15:57.989Z,10.34
2022-11-05T05:16:57.953Z,10.39
2022-11-05T05:17:57.951Z,10.34
2022-11-05T05:18:57.959Z,10.25
2022-11-05T05:19:57.932Z,10.18
2022-11-05T05:20:57.949Z,9.91
2022-11-05T05:21:57.955Z,9.67
2022-11-05T05:22:57.943Z,9.45
2022-11-05T05:23:57.957Z,9.21
2022-11-05T05:24:57.928Z,9.25
2022-11-05T05:25:57.921Z,9.13
2022-11-05T05:26:57.900Z,9.01
2022-11-05T05:27:57.903Z,8.97
2022-11-05T05:28:57.884Z,9.18
2022-11-05T05:29:57.872Z,9.31
2022-11-05T05:30:58.915Z,9.40
2022-11-05T05:31:58.900Z,9.27
2022-11-05T05:32:57.883Z,9.30
2022-11-05T05:33:58.440Z,9.21
2022-11-05T05:34:57.852Z,9.15
2022-11-05T05:35:57.884Z,9.12
2022-11-05T05:36:57.832Z,9.09
2022-11-05T05:37:57.850Z,8.97
2022-11-05T05:38:57.832Z,8.84
2022-11-05T05:39:57.853Z,8.93
2022-11-05T05:40:57.815Z,8.99
2022-11-05T05:41:57.869Z,8.84
2022-11-05T05:42:57.803Z,8.73
2022-11-05T05:43:57.807Z,8.63
2022-11-05T05:44:57.795Z,8.62
2022-11-05T05:45:57.784Z,8.50
2022-11-05T05:46:57.777Z,8.39
2022-11-05T05:47:57.805Z,8.30
2022-11-05T05:48:57.776Z,8.25
2022-11-05T05:49:57.768Z,8.18
2022-11-05T05:50:58.485Z,8.20
2022-11-05T05:51:57.766Z,8.15
2022-11-05T05:52:57.744Z,7.93
2022-11-05T05:53:57.759Z,7.99
2022-11-05T05:54:57.728Z,7.99
2022-11-05T05:55:57.720Z,7.96
2022-11-05T05:56:57.725Z,8.10
2022-11-05T05:57:57.703Z,8.04
2022-11-05T05:58:57.715Z,8.04
2022-11-05T05:59:58.484Z,8.03
2022-11-05T06:00:57.693Z,7.92
2022-11-05T06:01:57.763Z,7.96
2022-11-05T06:02:57.737Z,7.96
2022-11-05T06:03:57.697Z,8.08
2022-11-05T06:04:57.659Z,8.03
2022-11-05T06:05:57.693Z,7.99
2022-11-05T06:06:57.665Z,8.07
2022-11-05T06:07:57.655Z,7.97
2022-11-05T06:08:57.696Z,8.11
2022-11-05T06:09:57.630Z,8.17
2022-11-05T06:10:57.649Z,8.12
2022-11-05T06:11:57.637Z,8.26
2022-11-05T06:12:57.627Z,8.29
2022-11-05T06:13:57.608Z,8.30
2022-11-05T06:14:57.620Z,8.33
2022-11-05T06:15:57.592Z,8.33
2022-11-05T06:16:57.591Z,8.33
2022-11-05T06:17:57.604Z,8.26
2022-11-05T06:18:57.561Z,8.26
2022-11-05T06:19:57.558Z,8.25
2022-11-05T06:20:57.572Z,7.99
2022-11-05T06:21:57.567Z,7.84
2022-11-05T06:22:57.579Z,7.81
2022-11-05T06:23:57.547Z,7.74
2022-11-05T06:24:57.536Z,7.56
2022-11-05T06:25:57.519Z,7.38
2022-11-05T06:26:58.722Z,7.35
2022-11-05T06:27:57.546Z,7.40
2022-11-05T06:28:57.521Z,7.50
2022-11-05T06:29:57.588Z,7.67
2022-11-05T06:30:57.495Z,7.53
2022-11-05T06:31:57.495Z,7.37
2022-11-05T06:32:57.524Z,7.41
2022-11-05T06:33:57.476Z,7.35
2022-11-05T06:34:57.467Z,7.09
2022-11-05T06:35:57.475Z,7.05
2022-11-05T06:36:57.476Z,7.08
2022-11-05T06:37:57.460Z,7.22
2022-11-05T06:38:57.447Z,7.35
2022-11-05T06:39:57.459Z,7.52
2022-11-05T06:40:57.446Z,7.59
2022-11-05T06:42:17.137Z,7.72
2022-11-05T06:42:59.940Z,7.67
2022-11-05T06:43:57.425Z,7.53
2022-11-05T06:44:57.413Z,7.31
2022-11-05T06:45:57.401Z,7.05
2022-11-05T06:46:57.393Z,7.26
2022-11-05T06:47:57.417Z,7.31
2022-11-05T06:48:57.368Z,7.44
2022-11-05T06:49:57.389Z,7.24
2022-11-05T06:50:57.372Z,7.44
2022-11-05T06:51:57.381Z,7.67
2022-11-05T06:52:57.357Z,7.62
2022-11-05T06:53:57.345Z,7.71
2022-11-05T06:54:57.361Z,7.78
2022-11-05T06:55:57.342Z,7.96
2022-11-05T06:56:57.336Z,8.02
2022-11-05T06:57:57.348Z,7.96
2022-11-05T06:58:57.329Z,7.74
2022-11-05T07:00:02.300Z,7.77
2022-11-05T07:00:59.342Z,7.79
2022-11-05T07:01:57.406Z,7.72
2022-11-05T07:02:57.316Z,7.75
2022-11-05T07:03:57.288Z,7.53
2022-11-05T07:04:57.267Z,7.56
2022-11-05T07:05:57.285Z,7.60
2022-11-05T07:06:57.265Z,7.74
2022-11-05T07:07:57.277Z,7.94
2022-11-05T07:08:57.296Z,8.25
2022-11-05T07:09:57.260Z,8.57
2022-11-05T07:10:57.239Z,8.48
2022-11-05T07:11:57.226Z,8.28
2022-11-05T07:12:57.221Z,7.96
2022-11-05T07:13:57.249Z,7.84
2022-11-05T07:14:57.284Z,7.90
2022-11-05T07:15:57.218Z,7.92
2022-11-05T07:16:57.201Z,7.85
2022-11-05T07:17:57.193Z,7.84
2022-11-05T07:18:57.218Z,7.97
2022-11-05T07:19:57.192Z,8.12
2022-11-05T07:20:57.178Z,8.22
2022-11-05T07:21:57.175Z,8.32
2022-11-05T07:22:57.165Z,8.83
2022-11-05T07:23:57.182Z,9.18
2022-11-05T07:24:57.173Z,9.23
2022-11-05T07:25:57.145Z,9.58
2022-11-05T07:26:57.138Z,10.37
2022-11-05T07:27:57.128Z,10.92
2022-11-05T07:28:57.185Z,11.56
2022-11-05T07:29:57.121Z,11.93
2022-11-05T07:30:57.115Z,12.12
2022-11-05T07:31:57.114Z,12.34
2022-11-05T07:32:57.102Z,12.67
2022-11-05T07:33:57.121Z,13.44
2022-11-05T07:34:57.094Z,13.94
2022-11-05T07:35:57.076Z,14.57
2022-11-05T07:36:57.120Z,15.01
2022-11-05T07:37:57.071Z,15.49
2022-11-05T07:39:00.306Z,15.84
2022-11-05T07:39:58.092Z,15.67
2022-11-05T07:40:57.049Z,16.04
2022-11-05T07:41:57.046Z,16.31
2022-11-05T07:42:57.069Z,16.33
2022-11-05T07:43:57.034Z,16.41
2022-11-05T07:44:57.065Z,16.63
2022-11-05T07:45:57.043Z,17.32
2022-11-05T07:46:57.020Z,17.51
2022-11-05T07:47:57.018Z,17.53
2022-11-05T07:48:57.035Z,16.90
2022-11-05T07:49:57.003Z,16.56
2022-11-05T07:50:56.998Z,15.79
2022-11-05T07:51:56.991Z,15.23
2022-11-05T07:52:57.003Z,14.65
2022-11-05T07:53:56.967Z,14.13
2022-11-05T07:54:56.983Z,13.88
2022-11-05T07:55:57.096Z,13.92
2022-11-05T07:56:56.945Z,14.02
2022-11-05T07:57:56.946Z,14.31
2022-11-05T07:58:56.943Z,14.37
2022-11-05T07:59:56.937Z,14.35
2022-11-05T08:00:57.023Z,14.91
2022-11-05T08:01:57.100Z,15.74
2022-11-05T08:03:00.820Z,16.50
2022-11-05T08:03:57.913Z,17.18
2022-11-05T08:04:56.915Z,17.33
2022-11-05T08:05:56.894Z,17.71
2022-11-05T08:06:56.887Z,18.00
2022-11-05T08:07:56.888Z,17.84
2022-11-05T08:08:57.822Z,17.30
2022-11-05T08:09:56.857Z,17.41
2022-11-05T08:10:56.840Z,17.78
2022-11-05T08:12:02.451Z,18.50
2022-11-05T08:12:58.846Z,19.28
2022-11-05T08:13:56.863Z,19.90
2022-11-05T08:14:56.828Z,20.13
2022-11-05T08:15:56.812Z,20.30
2022-11-05T08:16:57.458Z,20.33
2022-11-05T08:17:56.810Z,19.79
2022-11-05T08:18:56.828Z,19.83
2022-11-05T08:19:56.812Z,20.38
2022-11-05T08:20:56.790Z,20.98
2022-11-05T08:21:56.778Z,21.39
2022-11-05T08:22:56.862Z,21.64
2022-11-05T08:23:56.777Z,21.99
2022-11-05T08:25:00.346Z,22.37
2022-11-05T08:25:57.754Z,22.50
2022-11-05T08:26:56.742Z,22.59
2022-11-05T08:27:56.744Z,22.46
2022-11-05T08:28:56.750Z,22.28
2022-11-05T08:29:56.728Z,22.07
2022-11-05T08:30:56.740Z,22.34
2022-11-05T08:31:56.731Z,22.49
2022-11-05T08:32:56.728Z,22.72
2022-11-05T08:34:02.194Z,22.72
2022-11-05T08:34:58.815Z,22.62
2022-11-05T08:35:56.691Z,22.39
2022-11-05T08:36:56.694Z,22.37
2022-11-05T08:37:56.689Z,22.78
2022-11-05T08:38:56.670Z,23.19
2022-11-05T08:39:56.685Z,23.19
2022-11-05T08:40:56.680Z,23.62
2022-11-05T08:41:56.664Z,23.80
2022-11-05T08:42:56.636Z,23.87
2022-11-05T08:43:56.633Z,22.74
2022-11-05T08:44:56.657Z,22.90
2022-11-05T08:45:56.653Z,23.14
2022-11-05T08:46:56.620Z,23.80
2022-11-05T08:47:56.627Z,23.97
2022-11-05T08:48:56.596Z,24.00
2022-11-05T08:49:56.642Z,23.83
2022-11-05T08:50:56.612Z,23.45
2022-11-05T08:51:56.587Z,22.89
2022-11-05T08:52:56.590Z,23.11
2022-11-05T08:53:56.679Z,23.05
2022-11-05T08:54:56.585Z,22.96
2022-11-05T08:55:56.560Z,22.99
2022-11-05T08:56:56.590Z,23.09
2022-11-05T08:57:56.563Z,22.92
2022-11-05T08:58:56.558Z,22.38
2022-11-05T08:59:56.529Z,22.72
2022-11-05T09:01:01.784Z,22.83
2022-11-05T09:01:58.666Z,22.47
2022-11-05T09:02:56.528Z,22.59
2022-11-05T09:03:56.552Z,22.94
2022-11-05T09:04:56.550Z,23.35
2022-11-05T09:05:56.526Z,22.69
2022-11-05T09:06:56.524Z,23.32
2022-11-05T09:08:00.863Z,23.04
2022-11-05T09:08:58.496Z,22.65
2022-11-05T09:09:56.507Z,22.96
2022-11-05T09:10:56.455Z,23.60
2022-11-05T09:12:11.923Z,24.34
2022-11-05T09:12:58.469Z,25.38
2022-11-05T09:13:56.465Z,25.52
2022-11-05T09:14:56.449Z,25.06
2022-11-05T09:15:56.471Z,22.99
2022-11-05T09:16:56.427Z,23.09
2022-11-05T09:17:56.422Z,23.42
2022-11-05T09:18:56.436Z,22.19
2022-11-05T09:19:56.406Z,22.84
2022-11-05T09:20:56.446Z,22.92
2022-11-05T09:21:56.386Z,23.17
2022-11-05T09:22:56.404Z,23.76
2022-11-05T09:23:56.394Z,24.67
2022-11-05T09:24:56.369Z,24.95
2022-11-05T09:25:56.482Z,25.53
2022-11-05T09:26:56.358Z,25.61
2022-11-05T09:27:56.369Z,24.73
2022-11-05T09:28:56.355Z,23.01
2022-11-05T09:29:56.351Z,21.82
2022-11-05T09:30:56.350Z,22.37
2022-11-05T09:31:56.327Z,22.69
2022-11-05T09:32:56.338Z,22.31
2022-11-05T09:33:56.343Z,22.32
2022-11-05T09:34:56.335Z,22.38
2022-11-05T09:35:56.323Z,22.44
2022-11-05T09:36:56.305Z,22.64
2022-11-05T09:38:00.737Z,22.59
2022-11-05T09:38:57.304Z,21.97
2022-11-05T09:39:56.282Z,21.30
2022-11-05T09:40:56.275Z,21.30
2022-11-05T09:41:56.316Z,21.51
2022-11-05T09:42:56.257Z,21.88
2022-11-05T09:43:56.269Z,21.91
2022-11-05T09:44:56.233Z,22.53
2022-11-05T09:45:57.299Z,21.79
2022-11-05T09:46:56.330Z,21.38
2022-11-05T09:47:57.031Z,22.16
2022-11-05T09:48:56.277Z,23.17
2022-11-05T09:49:56.302Z,23.55
2022-11-05T09:50:56.398Z,23.47
2022-11-05T09:51:56.341Z,23.46
2022-11-05T09:52:56.407Z,22.50
2022-11-05T09:53:56.287Z,22.44
2022-11-05T09:54:56.274Z,22.77
2022-11-05T09:55:56.290Z,23.47
2022-11-05T09:56:56.228Z,23.11
2022-11-05T09:57:56.261Z,22.84
2022-11-05T09:58:56.205Z,24.14
2022-11-05T09:59:56.305Z,22.96
2022-11-05T10:00:56.390Z,22.29
2022-11-05T10:01:56.408Z,22.93
2022-11-05T10:02:56.294Z,23.75
2022-11-05T10:03:56.211Z,23.55
2022-11-05T10:04:56.956Z,23.34
2022-11-05T10:05:56.222Z,22.23
2022-11-05T10:06:56.140Z,21.51
2022-11-05T10:07:56.160Z,21.60
2022-11-05T10:08:56.245Z,21.44
2022-11-05T10:09:56.145Z,20.64
2022-11-05T10:10:56.094Z,20.84
2022-11-05T10:11:57.041Z,21.23
2022-11-05T10:12:56.103Z,21.09
2022-11-05T10:13:56.094Z,21.39
2022-11-05T10:14:56.135Z,22.28
2022-11-05T10:15:56.240Z,23.35
2022-11-05T10:16:57.045Z,24.05
2022-11-05T10:17:56.089Z,23.24
2022-11-05T10:18:56.597Z,22.72
2022-11-05T10:19:56.188Z,22.87
2022-11-05T10:20:56.084Z,23.64
2022-11-05T10:22:12.272Z,23.39
2022-11-05T10:22:58.029Z,23.47
2022-11-05T10:23:56.058Z,23.19
2022-11-05T10:24:56.067Z,22.90
2022-11-05T10:25:56.010Z,21.66
2022-11-05T10:26:56.010Z,20.89
2022-11-05T10:27:56.035Z,20.84
2022-11-05T10:28:56.039Z,21.42
2022-11-05T10:29:56.099Z,21.53
2022-11-05T10:30:56.026Z,22.10
2022-11-05T10:31:55.990Z,22.54
2022-11-05T10:32:55.986Z,23.45
2022-11-05T10:33:56.026Z,23.14
2022-11-05T10:34:56.000Z,22.53
2022-11-05T10:35:56.011Z,22.16
2022-11-05T10:36:55.995Z,22.39
2022-11-05T10:37:55.963Z,23.04
2022-11-05T10:38:56.474Z,23.52
2022-11-05T10:39:55.992Z,23.12
2022-11-05T10:40:55.948Z,23.01
2022-11-05T10:41:55.950Z,23.17
2022-11-05T10:42:55.959Z,22.68
2022-11-05T10:43:55.930Z,23.07
2022-11-05T10:44:55.922Z,23.19
2022-11-05T10:45:56.003Z,22.83
2022-11-05T10:46:55.956Z,21.90
2022-11-05T10:47:55.907Z,21.30
2022-11-05T10:48:55.909Z,21.90
2022-11-05T10:49:55.918Z,21.82
2022-11-05T10:50:55.910Z,22.72
2022-11-05T10:51:55.900Z,21.91
2022-11-05T10:52:56.917Z,22.27
2022-11-05T10:54:00.506Z,23.04
2022-11-05T10:54:57.886Z,20.99
2022-11-05T10:55:55.892Z,19.25
2022-11-05T10:56:55.865Z,17.54
2022-11-05T10:57:55.870Z,16.58
2022-11-05T10:58:55.894Z,16.23
2022-11-05T10:59:55.858Z,15.38
2022-11-05T11:00:55.924Z,15.05
2022-11-05T11:01:56.029Z,14.87
2022-11-05T11:02:55.847Z,15.15
2022-11-05T11:03:55.813Z,15.24
2022-11-05T11:04:55.825Z,16.89
2022-11-05T11:05:55.835Z,16.01
2022-11-05T11:06:55.816Z,16.40
2022-11-05T11:07:55.820Z,18.58
2022-11-05T11:08:55.875Z,19.84
2022-11-05T11:09:55.817Z,20.00
2022-11-05T11:10:55.826Z,20.51
2022-11-05T11:14:52.068Z,21.42
2022-11-05T11:15:53.176Z,21.09
2022-11-05T11:16:53.232Z,20.90
2022-11-05T11:17:53.228Z,21.27
2022-11-05T11:18:53.168Z,22.53
2022-11-05T11:19:53.157Z,23.17
2022-11-05T11:20:53.148Z,22.28
2022-11-05T11:21:53.168Z,22.44
2022-11-05T11:22:53.153Z,23.76
2022-11-05T11:23:53.133Z,24.98
2022-11-05T11:24:53.128Z,25.89
2022-11-05T11:25:53.119Z,26.24
2022-11-05T11:26:53.135Z,25.67
2022-11-05T11:27:53.107Z,25.09
2022-11-05T11:28:53.101Z,25.07
2022-11-05T11:29:53.094Z,23.76
2022-11-05T11:30:53.089Z,22.90
2022-11-05T11:31:53.093Z,23.29
2022-11-05T11:32:53.094Z,20.90
2022-11-05T11:33:53.109Z,20.00
2022-11-05T11:34:53.090Z,18.92
2022-11-05T11:35:53.073Z,18.70
2022-11-05T11:36:53.053Z,17.64
2022-11-05T11:37:53.077Z,17.55
2022-11-05T11:38:53.072Z,16.58
2022-11-05T11:39:54.069Z,15.82
2022-11-05T11:40:53.054Z,15.19
2022-11-05T11:41:53.036Z,15.24
2022-11-05T11:42:53.080Z,16.34
2022-11-05T11:43:53.013Z,16.03
2022-11-05T11:44:53.013Z,15.82
2022-11-05T11:45:53.022Z,16.74
2022-11-05T11:46:53.001Z,17.26
2022-11-05T11:47:53.135Z,18.33
2022-11-05T11:48:52.990Z,19.10
2022-11-05T11:49:52.976Z,20.74
2022-11-05T11:50:52.991Z,21.54
2022-11-05T11:51:52.974Z,21.59
2022-11-05T11:52:52.966Z,20.13
2022-11-05T11:53:52.977Z,19.65
2022-11-05T11:54:52.949Z,19.01
2022-11-05T11:55:52.945Z,19.53
2022-11-05T11:56:52.961Z,18.12
2022-11-05T11:57:52.940Z,17.51
2022-11-05T11:58:52.965Z,16.73
2022-11-05T12:00:09.643Z,16.62
2022-11-05T12:00:54.940Z,16.50
2022-11-05T12:01:53.029Z,16.37
2022-11-05T12:02:55.963Z,16.26
2022-11-05T12:03:53.903Z,16.31
2022-11-05T12:04:52.897Z,16.03
2022-11-05T12:05:52.880Z,15.85
2022-11-05T12:06:53.782Z,15.78
2022-11-05T12:07:52.872Z,15.52
2022-11-05T12:08:59.523Z,15.36
2022-11-05T12:09:54.872Z,15.28
2022-11-05T12:10:52.850Z,15.48
2022-11-05T12:11:52.857Z,15.42
2022-11-05T12:12:52.878Z,15.35
2022-11-05T12:13:52.841Z,15.13
2022-11-05T12:14:52.873Z,15.23
2022-11-05T12:15:52.838Z,15.11
2022-11-05T12:16:52.823Z,15.13
2022-11-05T12:17:52.833Z,15.20
2022-11-05T12:18:52.817Z,15.02
2022-11-05T12:19:52.827Z,15.17
2022-11-05T12:20:57.834Z,15.15
2022-11-05T12:21:54.786Z,15.31
2022-11-05T12:22:52.809Z,15.21
2022-11-05T12:23:52.783Z,15.21
2022-11-05T12:24:52.776Z,15.39
2022-11-05T12:25:52.758Z,15.35
2022-11-05T12:26:52.779Z,15.23
2022-11-05T12:27:53.760Z,15.08
2022-11-05T12:29:17.233Z,15.66
2022-11-05T12:29:54.743Z,16.74
2022-11-05T12:30:52.743Z,17.87
2022-11-05T12:31:52.742Z,18.17
2022-11-05T12:32:52.776Z,17.54
2022-11-05T12:33:52.702Z,17.38
2022-11-05T12:34:52.710Z,18.27
2022-11-05T12:35:57.561Z,19.91
2022-11-05T12:36:54.710Z,20.10
2022-11-05T12:37:52.697Z,21.17
2022-11-05T12:38:52.682Z,21.82
2022-11-05T12:39:52.734Z,23.05
2022-11-05T12:40:52.664Z,23.86
2022-11-05T12:41:53.771Z,22.44
2022-11-05T12:42:52.690Z,21.11
2022-11-05T12:43:52.641Z,20.27
2022-11-05T12:44:52.640Z,20.06
2022-11-05T12:45:52.629Z,19.50
2022-11-05T12:46:52.658Z,19.39
2022-11-05T12:47:52.623Z,19.54
2022-11-05T12:48:52.674Z,18.86
2022-11-05T12:49:52.607Z,19.13
2022-11-05T12:50:52.611Z,19.60
2022-11-05T12:51:52.591Z,19.75
2022-11-05T12:52:52.599Z,19.91
2022-11-05T12:53:52.615Z,18.91
2022-11-05T12:54:52.575Z,18.54
2022-11-05T12:55:52.592Z,18.47
2022-11-05T12:56:52.611Z,18.76
2022-11-05T12:57:52.670Z,18.97
2022-11-05T12:58:52.561Z,18.86
2022-11-05T12:59:52.578Z,17.85